createdAt,value
2024-03-03T00:01:43.161Z,24.02
2024-03-03T00:04:16.495Z,22.60
2024-03-03T00:06:50.257Z,18.35
2024-03-03T00:09:23.631Z,20.25
2024-03-03T00:11:59.939Z,17.05
2024-03-03T00:14:35.377Z,22.90
2024-03-03T00:17:08.785Z,31.15
2024-03-03T00:19:43.593Z,20.23
2024-03-03T00:22:17.517Z,19.85
2024-03-03T00:24:51.062Z,18.20
2024-03-03T00:27:24.693Z,18.98
2024-03-03T00:29:58.631Z,22.85
2024-03-03T00:32:32.281Z,17.70
2024-03-03T00:35:06.288Z,20.52
2024-03-03T00:37:39.870Z,15.68
2024-03-03T00:40:15.318Z,17.25
2024-03-03T00:42:50.090Z,17.80
2024-03-03T00:45:23.368Z,17.87
2024-03-03T00:47:57.037Z,21.45
2024-03-03T00:50:30.443Z,21.25
2024-03-03T00:53:04.097Z,17.45
2024-03-03T00:55:37.735Z,22.13
2024-03-03T00:58:11.470Z,13.90
2024-03-03T01:00:45.527Z,19.02
2024-03-03T01:03:21.530Z,21.77
2024-03-03T01:05:54.920Z,25.32
2024-03-03T01:08:28.369Z,18.40
2024-03-03T01:11:04.091Z,19.37
2024-03-03T01:13:37.639Z,27.25
2024-03-03T01:16:11.589Z,21.45
2024-03-03T01:18:45.159Z,23.38
2024-03-03T01:21:20.456Z,18.82
2024-03-03T01:23:53.883Z,17.62
2024-03-03T01:26:27.239Z,24.85
2024-03-03T01:29:00.793Z,21.82
2024-03-03T01:31:34.274Z,17.52
2024-03-03T01:34:07.605Z,22.37
2024-03-03T01:36:41.221Z,18.95
2024-03-03T01:39:15.092Z,20.50
2024-03-03T01:41:49.195Z,24.25
2024-03-03T01:44:22.990Z,21.40
2024-03-03T01:46:57.063Z,18.85
2024-03-03T01:49:32.267Z,25.90
2024-03-03T01:52:08.475Z,23.02
2024-03-03T01:54:42.277Z,19.98
2024-03-03T01:57:19.069Z,20.20
2024-03-03T01:59:53.866Z,14.93
2024-03-03T02:02:28.302Z,22.82
2024-03-03T02:05:01.900Z,25.52
2024-03-03T02:07:36.392Z,19.77
2024-03-03T02:10:12.200Z,18.87
2024-03-03T02:12:48.430Z,26.57
2024-03-03T02:15:23.058Z,20.13
2024-03-03T02:17:58.419Z,20.65
2024-03-03T02:20:32.617Z,15.68
2024-03-03T02:23:07.967Z,21.82
2024-03-03T02:25:42.351Z,22.98
2024-03-03T02:28:17.465Z,23.00
2024-03-03T02:30:51.475Z,16.57
2024-03-03T02:33:25.237Z,21.00
2024-03-03T02:35:58.650Z,19.65
2024-03-03T02:38:31.843Z,20.32
2024-03-03T02:41:06.150Z,28.00
2024-03-03T02:43:39.750Z,12.47
2024-03-03T02:46:15.170Z,15.53
2024-03-03T02:48:49.252Z,16.85
2024-03-03T02:51:22.995Z,16.32
2024-03-03T02:53:56.459Z,25.80
2024-03-03T02:56:31.248Z,14.25
2024-03-03T02:59:04.694Z,23.60
2024-03-03T03:01:38.555Z,23.07
2024-03-03T03:04:12.135Z,21.42
2024-03-03T03:06:45.545Z,18.67
2024-03-03T03:09:18.923Z,16.45
2024-03-03T03:11:52.531Z,11.73
2024-03-03T03:14:26.218Z,27.22
2024-03-03T03:19:40.623Z,24.23
2024-03-03T03:22:14.860Z,18.55
2024-03-03T03:24:48.677Z,21.33
2024-03-03T03:27:22.246Z,17.98
2024-03-03T03:29:55.785Z,15.60
2024-03-03T03:32:29.377Z,17.32
2024-03-03T03:35:03.431Z,15.83
2024-03-03T03:37:37.032Z,16.17
2024-03-03T03:40:13.026Z,17.17
2024-03-03T03:42:46.548Z,12.98
2024-03-03T03:45:21.002Z,16.23
2024-03-03T03:47:54.488Z,22.85
2024-03-03T03:50:27.988Z,17.55
2024-03-03T03:53:01.396Z,18.35
2024-03-03T03:55:34.935Z,18.62
2024-03-03T03:58:08.844Z,14.38
2024-03-03T04:00:42.469Z,14.40
2024-03-03T04:03:16.213Z,19.00
2024-03-03T04:05:49.825Z,15.30
2024-03-03T04:08:23.405Z,18.37
2024-03-03T04:10:58.384Z,20.35
2024-03-03T04:13:31.936Z,15.10
2024-03-03T04:16:07.768Z,16.97
2024-03-03T04:18:42.747Z,20.88
2024-03-03T04:21:16.551Z,23.25
2024-03-03T04:23:50.171Z,20.85
2024-03-03T04:26:23.757Z,18.45
2024-03-03T04:28:57.178Z,24.40
2024-03-03T04:31:30.579Z,12.90
2024-03-03T04:34:04.208Z,14.80
2024-03-03T04:36:38.181Z,15.32
2024-03-03T04:39:12.092Z,19.15
2024-03-03T04:41:45.626Z,14.90
2024-03-03T04:44:20.000Z,11.48
2024-03-03T04:46:53.607Z,17.37
2024-03-03T04:49:27.043Z,15.10
2024-03-03T04:52:00.326Z,29.15
2024-03-03T04:54:33.984Z,16.77
2024-03-03T04:57:08.287Z,20.68
2024-03-03T04:59:42.429Z,19.92
2024-03-03T05:02:16.004Z,21.50
2024-03-03T05:04:49.680Z,22.27
2024-03-03T05:07:23.377Z,19.62
2024-03-03T05:09:57.052Z,18.52
2024-03-03T05:12:30.462Z,23.95
2024-03-03T05:15:05.120Z,18.10
2024-03-03T05:17:38.690Z,18.25
2024-03-03T05:20:14.122Z,18.57
2024-03-03T05:22:48.922Z,19.05
2024-03-03T05:25:22.676Z,21.15
2024-03-03T05:27:56.674Z,44.35
2024-03-03T05:30:30.309Z,20.30
2024-03-03T05:33:03.740Z,18.80
2024-03-03T05:35:39.625Z,27.73
2024-03-03T05:38:13.093Z,22.32
2024-03-03T05:40:47.182Z,20.43
2024-03-03T05:43:20.635Z,20.62
2024-03-03T05:45:53.916Z,25.23
2024-03-03T05:48:27.301Z,23.92
2024-03-03T05:51:01.404Z,23.07
2024-03-03T05:53:34.988Z,23.10
2024-03-03T05:56:09.709Z,21.20
2024-03-03T05:58:43.421Z,20.80
2024-03-03T06:01:17.130Z,28.17
2024-03-03T06:03:50.738Z,28.40
2024-03-03T06:06:25.087Z,28.62
2024-03-03T06:08:58.460Z,19.17
2024-03-03T06:11:32.033Z,21.20
2024-03-03T06:14:06.146Z,21.30
2024-03-03T06:16:40.199Z,21.35
2024-03-03T06:19:13.976Z,25.70
2024-03-03T06:21:50.064Z,20.27
2024-03-03T06:24:23.938Z,22.32
2024-03-03T06:26:57.478Z,19.07
2024-03-03T06:29:31.153Z,20.40
2024-03-03T06:32:04.816Z,21.70
2024-03-03T06:34:39.394Z,21.35
2024-03-03T06:37:14.570Z,17.05
2024-03-03T06:39:49.898Z,19.02
2024-03-03T06:42:23.762Z,17.45
2024-03-03T06:44:57.277Z,17.95
2024-03-03T06:47:33.375Z,20.43
2024-03-03T06:50:08.862Z,20.95
2024-03-03T06:52:42.504Z,22.73
2024-03-03T06:55:16.460Z,16.65
2024-03-03T06:57:50.706Z,27.05
2024-03-03T07:00:24.684Z,16.75
2024-03-03T07:03:00.455Z,22.87
2024-03-03T07:05:34.091Z,28.30
2024-03-03T07:08:08.838Z,17.82
2024-03-03T07:10:42.689Z,21.05
2024-03-03T07:15:58.985Z,20.17
2024-03-03T07:18:32.756Z,16.07
2024-03-03T07:21:33.688Z,16.82
2024-03-03T07:24:07.918Z,18.80
2024-03-03T07:26:41.451Z,26.20
2024-03-03T07:29:15.320Z,22.67
2024-03-03T07:31:49.182Z,19.55
2024-03-03T07:34:22.904Z,17.57
2024-03-03T07:36:56.790Z,18.55
2024-03-03T07:39:31.665Z,17.62
2024-03-03T07:42:05.601Z,13.53
2024-03-03T07:44:39.924Z,20.08
2024-03-03T07:47:13.437Z,15.93
2024-03-03T07:49:46.917Z,17.92
2024-03-03T07:52:20.494Z,19.32
2024-03-03T07:54:55.813Z,23.70
2024-03-03T07:57:29.074Z,14.05
2024-03-03T08:00:06.223Z,15.93
2024-03-03T08:02:41.103Z,13.18
2024-03-03T08:05:15.274Z,17.98
2024-03-03T08:07:48.800Z,16.90
2024-03-03T08:10:22.451Z,17.32
2024-03-03T08:12:56.610Z,13.28
2024-03-03T08:15:30.311Z,17.77
2024-03-03T08:18:04.134Z,15.83
2024-03-03T08:20:37.523Z,16.50
2024-03-03T08:23:10.981Z,17.48
2024-03-03T08:25:47.408Z,21.90
2024-03-03T08:28:21.368Z,17.60
2024-03-03T08:30:54.992Z,17.37
2024-03-03T08:33:28.736Z,13.08
2024-03-03T08:36:02.203Z,13.55
2024-03-03T08:38:38.703Z,14.40
2024-03-03T08:41:12.098Z,21.17
2024-03-03T08:43:47.790Z,16.62
2024-03-03T08:46:22.284Z,15.03
2024-03-03T08:51:43.957Z,18.35
2024-03-03T08:54:17.300Z,16.12
2024-03-03T08:56:51.525Z,16.62
2024-03-03T08:59:25.213Z,16.40
2024-03-03T09:01:58.913Z,14.60
2024-03-03T09:04:35.369Z,16.80
2024-03-03T09:07:09.767Z,16.10
2024-03-03T09:09:45.843Z,15.43
2024-03-03T09:12:18.819Z,14.78
2024-03-03T09:14:52.418Z,10.30
2024-03-03T09:17:26.163Z,17.90
2024-03-03T09:20:00.386Z,11.85
2024-03-03T09:22:37.244Z,13.65
2024-03-03T09:25:11.734Z,14.55
2024-03-03T09:27:45.736Z,10.28
2024-03-03T09:30:19.941Z,12.65
2024-03-03T09:32:55.057Z,12.60
2024-03-03T09:35:28.585Z,17.75
2024-03-03T09:38:02.115Z,11.88
2024-03-03T09:40:37.766Z,10.40
2024-03-03T09:43:12.818Z,14.80
2024-03-03T09:45:49.451Z,10.65
2024-03-03T09:48:24.960Z,10.68
2024-03-03T09:51:00.950Z,12.95
2024-03-03T09:53:38.278Z,9.93
2024-03-03T09:56:12.744Z,13.80
2024-03-03T09:58:46.227Z,10.43
2024-03-03T10:01:23.266Z,7.08
2024-03-03T10:03:57.096Z,14.47
2024-03-03T10:06:31.629Z,13.20
2024-03-03T10:09:08.539Z,11.48
2024-03-03T10:11:43.525Z,21.27
2024-03-03T10:14:18.137Z,9.13
2024-03-03T10:16:51.695Z,10.30
2024-03-03T10:19:27.338Z,11.43
2024-03-03T10:22:02.496Z,12.25
2024-03-03T10:24:36.147Z,10.53
2024-03-03T10:27:12.735Z,12.58
2024-03-03T10:29:47.834Z,9.15
2024-03-03T10:32:21.293Z,12.25
2024-03-03T10:35:01.881Z,11.68
2024-03-03T10:37:35.577Z,6.97
2024-03-03T10:40:14.553Z,7.72
2024-03-03T10:42:48.815Z,7.80
2024-03-03T10:45:23.412Z,8.30
2024-03-03T10:47:58.905Z,6.30
2024-03-03T10:50:42.074Z,7.35
2024-03-03T10:53:17.299Z,8.55
2024-03-03T10:55:51.839Z,10.20
2024-03-03T10:58:27.576Z,10.72
2024-03-03T11:01:02.921Z,8.98
2024-03-03T11:03:38.324Z,8.13
2024-03-03T11:06:13.943Z,9.60
2024-03-03T11:08:51.638Z,9.95
2024-03-03T11:11:28.083Z,8.90
2024-03-03T11:14:04.645Z,10.55
2024-03-03T11:16:40.393Z,14.18
2024-03-03T11:19:16.742Z,9.78
2024-03-03T11:21:53.165Z,14.53
2024-03-03T11:24:31.393Z,9.08
2024-03-03T11:27:07.895Z,11.45
2024-03-03T11:29:44.307Z,7.70
2024-03-03T11:32:18.641Z,7.17
2024-03-03T11:34:54.375Z,9.20
2024-03-03T11:37:29.832Z,9.05
2024-03-03T11:40:05.402Z,10.75
2024-03-03T11:42:50.110Z,8.18
2024-03-03T11:45:45.091Z,7.67
2024-03-03T11:48:19.383Z,7.47
2024-03-03T11:50:52.932Z,8.83
2024-03-03T11:53:26.641Z,9.30
2024-03-03T11:56:00.068Z,11.20
2024-03-03T11:58:36.151Z,9.80
2024-03-03T12:01:13.012Z,11.57
2024-03-03T12:03:46.797Z,7.83
2024-03-03T12:06:22.652Z,10.85
2024-03-03T12:08:58.611Z,7.47
2024-03-03T12:11:32.756Z,7.60
2024-03-03T12:14:07.330Z,5.97
2024-03-03T12:16:40.671Z,9.13
2024-03-03T12:19:15.699Z,9.33
2024-03-03T12:21:49.484Z,9.13
2024-03-03T12:24:23.115Z,10.65
2024-03-03T12:26:56.771Z,8.45
2024-03-03T12:29:30.238Z,6.10
2024-03-03T12:32:05.939Z,7.85
2024-03-03T12:34:39.422Z,11.25
2024-03-03T12:37:13.194Z,8.63
2024-03-03T12:39:46.715Z,7.33
2024-03-03T12:42:20.836Z,9.50
2024-03-03T12:44:56.454Z,6.37
2024-03-03T12:47:34.307Z,8.75
2024-03-03T12:50:11.163Z,9.00
2024-03-03T12:52:45.427Z,9.63
2024-03-03T12:55:19.993Z,7.17
2024-03-03T12:57:53.658Z,12.03
2024-03-03T13:00:27.859Z,13.88
2024-03-03T13:03:01.353Z,8.88
2024-03-03T13:05:36.084Z,9.70
2024-03-03T13:08:13.185Z,12.07
2024-03-03T13:10:47.846Z,6.73
2024-03-03T13:13:22.257Z,7.45
2024-03-03T13:15:55.985Z,14.03
2024-03-03T13:18:29.471Z,6.40
2024-03-03T13:21:15.981Z,11.85
2024-03-03T13:23:49.317Z,6.85
2024-03-03T13:26:22.801Z,9.10
2024-03-03T13:28:55.933Z,9.20
2024-03-03T13:31:29.576Z,14.80
2024-03-03T13:34:03.071Z,6.97
2024-03-03T13:36:36.402Z,5.47
2024-03-03T13:39:11.898Z,13.83
2024-03-03T13:41:45.693Z,9.48
2024-03-03T13:44:18.964Z,9.95
2024-03-03T13:46:52.091Z,8.45
2024-03-03T13:49:25.688Z,5.62
2024-03-03T13:51:58.922Z,9.18
2024-03-03T13:54:32.522Z,11.73
2024-03-03T13:57:06.916Z,8.33
2024-03-03T13:59:40.886Z,11.05
2024-03-03T14:02:15.388Z,11.38
2024-03-03T14:04:48.557Z,7.72
2024-03-03T14:07:21.243Z,8.25
2024-03-03T14:09:54.154Z,6.97
2024-03-03T14:12:27.036Z,9.23
2024-03-03T14:14:59.445Z,9.90
2024-03-03T14:17:33.497Z,6.72
2024-03-03T14:20:08.044Z,15.48
2024-03-03T14:22:41.681Z,9.08
2024-03-03T14:25:14.601Z,11.60
2024-03-03T14:27:49.776Z,13.38
2024-03-03T14:30:22.593Z,11.57
2024-03-03T14:32:55.007Z,19.87
2024-03-03T14:35:27.508Z,7.28
2024-03-03T14:38:00.215Z,12.03
2024-03-03T14:40:32.832Z,14.53
2024-03-03T14:43:05.700Z,8.33
2024-03-03T14:45:39.102Z,12.90
2024-03-03T14:48:12.625Z,11.53
2024-03-03T14:50:45.070Z,12.07
2024-03-03T14:53:17.701Z,6.78
2024-03-03T14:55:50.614Z,8.50
2024-03-03T14:58:25.572Z,11.45
2024-03-03T15:00:58.456Z,8.30
2024-03-03T15:03:31.309Z,8.50
2024-03-03T15:06:04.251Z,8.88
2024-03-03T15:08:37.172Z,12.47
2024-03-03T15:11:09.833Z,10.10
2024-03-03T15:16:25.022Z,9.78
2024-03-03T15:18:57.614Z,7.75
2024-03-03T15:21:30.281Z,9.40
2024-03-03T15:24:02.747Z,11.30
2024-03-03T15:26:35.217Z,15.85
2024-03-03T15:29:07.822Z,14.03
2024-03-03T15:31:40.305Z,10.68
2024-03-03T15:34:13.431Z,9.73
2024-03-03T15:36:46.450Z,11.22
2024-03-03T15:39:19.099Z,7.20
2024-03-03T15:41:52.080Z,9.83
2024-03-03T15:44:26.153Z,17.55
2024-03-03T15:47:01.403Z,11.30
2024-03-03T15:49:34.369Z,12.95
2024-03-03T15:52:07.528Z,9.75
2024-03-03T15:54:40.376Z,12.37
2024-03-03T15:57:13.648Z,12.78
2024-03-03T15:59:46.711Z,11.80
2024-03-03T16:02:22.736Z,14.23
2024-03-03T16:04:56.196Z,15.87
2024-03-03T16:07:29.722Z,12.37
2024-03-03T16:10:04.849Z,14.18
2024-03-03T16:12:38.613Z,10.70
2024-03-03T16:15:14.149Z,12.37
2024-03-03T16:17:48.614Z,11.88
2024-03-03T16:20:26.714Z,8.15
2024-03-03T16:23:00.241Z,11.70
2024-03-03T16:25:37.326Z,9.33
2024-03-03T16:28:11.602Z,14.77
2024-03-03T16:30:44.974Z,10.82
2024-03-03T16:33:18.721Z,15.10
2024-03-03T16:35:52.175Z,12.47
2024-03-03T16:38:27.301Z,8.28
2024-03-03T16:41:03.136Z,11.03
2024-03-03T16:43:39.725Z,10.30
2024-03-03T16:46:14.974Z,13.83
2024-03-03T16:48:48.607Z,11.25
2024-03-03T16:54:05.992Z,12.33
2024-03-03T16:56:43.519Z,12.93
2024-03-03T16:59:16.477Z,10.45
2024-03-03T17:01:52.768Z,11.68
2024-03-03T17:04:27.142Z,15.98
2024-03-03T17:07:00.715Z,12.93
2024-03-03T17:09:34.129Z,9.95
2024-03-03T17:14:51.578Z,9.95
2024-03-03T17:17:27.600Z,11.00
2024-03-03T17:20:01.890Z,11.12
2024-03-03T17:22:36.009Z,10.90
2024-03-03T17:25:11.580Z,13.85
2024-03-03T17:27:45.819Z,11.65
2024-03-03T17:30:22.602Z,11.35
2024-03-03T17:32:54.689Z,14.87
2024-03-03T17:35:28.021Z,9.83
2024-03-03T17:38:02.276Z,15.32
2024-03-03T17:40:36.858Z,10.08
2024-03-03T17:43:10.745Z,12.70
2024-03-03T17:45:44.843Z,12.43
2024-03-03T17:48:19.666Z,10.18
2024-03-03T17:50:53.082Z,9.10
2024-03-03T17:53:26.396Z,11.00
2024-03-03T17:56:00.202Z,15.05
2024-03-03T17:58:34.450Z,12.85
2024-03-03T18:01:08.282Z,12.78
2024-03-03T18:03:42.090Z,12.60
2024-03-03T18:06:19.689Z,14.63
2024-03-03T18:11:25.556Z,11.03
2024-03-03T18:14:06.088Z,11.60
2024-03-03T18:16:39.579Z,16.17
2024-03-03T18:19:13.653Z,15.30
2024-03-03T18:21:49.070Z,14.20
2024-03-03T18:24:24.164Z,13.55
2024-03-03T18:26:57.791Z,17.42
2024-03-03T18:29:33.043Z,13.62
2024-03-03T18:35:09.252Z,13.28
2024-03-03T18:37:43.499Z,19.95
2024-03-03T18:40:18.595Z,11.00
2024-03-03T18:42:52.246Z,11.65
2024-03-03T18:45:25.940Z,14.60
2024-03-03T18:47:59.814Z,16.30
2024-03-03T18:50:33.890Z,12.40
2024-03-03T18:53:07.932Z,15.10
2024-03-03T18:55:43.052Z,16.75
2024-03-03T18:58:16.617Z,14.90
2024-03-03T19:00:50.538Z,17.32
2024-03-03T19:03:24.701Z,17.60
2024-03-03T19:05:59.117Z,12.95
2024-03-03T19:08:34.287Z,13.08
2024-03-03T19:11:08.278Z,11.75
2024-03-03T19:13:42.438Z,12.15
2024-03-03T19:16:16.436Z,13.88
2024-03-03T19:18:51.366Z,19.07
2024-03-03T19:21:25.046Z,12.90
2024-03-03T19:23:59.084Z,16.30
2024-03-03T19:26:32.943Z,13.68
2024-03-03T19:29:08.143Z,21.17
2024-03-03T19:31:41.666Z,17.87
2024-03-03T19:34:17.948Z,11.38
2024-03-03T19:36:56.357Z,12.93
2024-03-03T19:39:43.725Z,12.88
2024-03-03T19:42:19.936Z,18.05
2024-03-03T19:44:57.740Z,14.00
2024-03-03T19:47:38.825Z,16.73
2024-03-03T19:50:15.895Z,14.38
2024-03-03T19:52:49.490Z,14.63
2024-03-03T19:55:23.293Z,15.30
2024-03-03T19:57:58.023Z,16.12
2024-03-03T20:00:31.404Z,12.70
2024-03-03T20:03:07.006Z,14.98
2024-03-03T20:05:41.375Z,14.70
2024-03-03T20:08:14.899Z,13.53
2024-03-03T20:10:48.956Z,11.43
2024-03-03T20:13:22.818Z,14.53
2024-03-03T20:15:57.099Z,13.48
2024-03-03T20:18:31.445Z,16.37
2024-03-03T20:21:05.974Z,15.38
2024-03-03T20:23:39.626Z,24.70
2024-03-03T20:26:13.029Z,15.48
2024-03-03T20:28:46.427Z,13.88
2024-03-03T20:31:21.859Z,12.78
2024-03-03T20:33:55.285Z,12.20
2024-03-03T20:36:40.307Z,14.38
2024-03-03T20:39:13.775Z,11.85
2024-03-03T20:41:49.010Z,11.10
2024-03-03T20:44:22.750Z,16.87
2024-03-03T20:49:38.699Z,18.52
2024-03-03T20:52:12.942Z,17.98
2024-03-03T20:54:50.245Z,23.07
2024-03-03T20:57:23.620Z,15.18
2024-03-03T20:59:57.005Z,14.93
2024-03-03T21:02:30.993Z,13.95
2024-03-03T21:05:05.078Z,14.00
2024-03-03T21:07:39.597Z,17.42
2024-03-03T21:10:13.640Z,10.90
2024-03-03T21:12:47.135Z,16.40
2024-03-03T21:15:20.724Z,17.45
2024-03-03T21:17:54.276Z,16.40
2024-03-03T21:20:28.024Z,13.53
2024-03-03T21:23:01.698Z,14.95
2024-03-03T21:25:35.149Z,14.18
2024-03-03T21:28:09.703Z,13.65
2024-03-03T21:30:43.138Z,15.40
2024-03-03T21:33:17.608Z,13.95
2024-03-03T21:35:51.039Z,14.95
2024-03-03T21:38:25.030Z,13.85
2024-03-03T21:41:01.246Z,16.42
2024-03-03T21:43:35.371Z,17.37
2024-03-03T21:46:10.512Z,15.72
2024-03-03T21:48:43.688Z,15.88
2024-03-03T21:51:17.424Z,15.00
2024-03-03T21:53:52.723Z,13.78
2024-03-03T21:56:25.985Z,16.55
2024-03-03T21:58:59.376Z,16.35
2024-03-03T22:01:32.967Z,16.70
2024-03-03T22:04:06.924Z,14.25
2024-03-03T22:06:41.433Z,13.75
2024-03-03T22:09:15.109Z,12.75
2024-03-03T22:11:48.496Z,22.37
2024-03-03T22:14:21.975Z,18.10
2024-03-03T22:16:55.279Z,17.35
2024-03-03T22:19:29.143Z,13.28
2024-03-03T22:22:02.618Z,15.93
2024-03-03T22:24:36.437Z,17.70
2024-03-03T22:27:10.270Z,17.10
2024-03-03T22:29:44.846Z,12.07
2024-03-03T22:32:17.946Z,13.98
2024-03-03T22:34:51.517Z,15.88
2024-03-03T22:37:26.633Z,16.82
2024-03-03T22:40:00.746Z,17.85
2024-03-03T22:42:34.864Z,16.57
2024-03-03T22:45:10.542Z,15.08
2024-03-03T22:47:43.835Z,15.72
2024-03-03T22:50:17.842Z,11.78
2024-03-03T22:52:51.189Z,15.38
2024-03-03T22:55:25.842Z,14.73
2024-03-03T22:57:59.458Z,16.37
2024-03-03T23:00:34.994Z,14.78
2024-03-03T23:03:10.045Z,16.25
2024-03-03T23:05:43.524Z,16.07
2024-03-03T23:08:17.698Z,13.90
2024-03-03T23:10:51.341Z,18.40
2024-03-03T23:13:24.774Z,16.12
2024-03-03T23:15:58.582Z,17.73
2024-03-03T23:18:32.073Z,14.18
2024-03-03T23:21:05.751Z,15.93
2024-03-03T23:23:39.121Z,20.60
2024-03-03T23:26:12.511Z,19.05
2024-03-03T23:28:46.972Z,17.62
2024-03-03T23:31:20.485Z,18.87
2024-03-03T23:33:53.858Z,18.30
2024-03-03T23:36:27.338Z,22.80
2024-03-03T23:39:00.886Z,14.13
2024-03-03T23:41:34.325Z,14.23
2024-03-03T23:44:08.181Z,15.85
2024-03-03T23:46:43.012Z,20.57
2024-03-03T23:49:16.570Z,14.38
2024-03-03T23:51:50.389Z,20.05
2024-03-03T23:54:25.091Z,21.07
2024-03-03T23:56:58.939Z,16.23
2024-03-03T23:59:33.517Z,14.15
